Time;durP1;ratioP1;P1;durP2;ratioP2;P2;SDS_P1;SDS_P2;PMS_P1;PMS_P2;Temp;Humidity;BMP_temperature;BMP_pressure;BME280_temperature;BME280_humidity;BME280_pressure;Samples;Min_cycle;Max_cycle;Signal;HPM_P1;HPM_P2
2022/02/14 00:02:19;;;;;;;104.80;72.50;;;153.90;2252.80;;;;;;4882688;29;20116;-77
2022/02/14 00:04:45;;;;;;;124.13;76.75;;;153.80;2252.80;;;;;;4883125;29;20115;-79
2022/02/14 00:07:10;;;;;;;133.13;85.80;;;153.90;2252.80;;;;;;4899914;29;20079;-79
2022/02/14 00:09:36;;;;;;;113.97;73.85;;;153.80;2252.80;;;;;;4882609;29;20025;-77
2022/02/14 00:12:03;;;;;;;87.38;58.70;;;154.30;2252.80;;;;;;4882964;29;20028;-78
2022/02/14 00:14:29;;;;;;;99.07;65.38;;;153.70;2252.80;;;;;;4883789;29;20029;-79
2022/02/14 00:16:55;;;;;;;71.13;46.42;;;128.90;2252.80;;;;;;4884353;29;20021;-76
2022/02/14 00:19:21;;;;;;;76.60;54.58;;;128.80;2252.80;;;;;;4886710;29;20048;-74
2022/02/14 00:21:47;;;;;;;114.45;68.78;;;128.90;2252.80;;;;;;4886659;29;20459;-75
2022/02/14 00:24:14;;;;;;;103.93;67.35;;;153.60;2252.80;;;;;;4884758;29;20031;-76
2022/02/14 00:26:40;;;;;;;131.23;79.68;;;153.70;2252.80;;;;;;4885500;29;20056;-73
2022/02/14 00:29:06;;;;;;;144.00;88.85;;;153.70;2252.80;;;;;;4884131;29;20080;-75
2022/02/14 00:31:32;;;;;;;137.30;85.50;;;153.60;2252.80;;;;;;4884682;29;20028;-73
2022/02/14 00:34:08;;;;;;;158.50;98.45;;;153.60;2252.80;;;;;;4887846;29;20551;-79
2022/02/14 00:36:37;;;;;;;138.73;80.45;;;153.70;2252.80;;;;;;4892032;29;20120;-77
2022/02/14 00:39:23;;;;;;;75.72;48.25;;;153.70;2252.80;;;;;;4908505;29;20081;-76
2022/02/14 00:41:54;;;;;;;49.60;36.28;;;153.80;2252.80;;;;;;4893260;29;20025;-76
2022/02/14 00:44:46;;;;;;;39.20;27.35;;;153.70;2252.80;;;;;;4907458;29;20353;-76
2022/02/14 00:47:12;;;;;;;34.58;25.05;;;153.80;2252.80;;;;;;4887847;29;20032;-76
2022/02/14 00:49:38;;;;;;;39.05;25.52;;;153.70;2252.80;;;;;;4884788;29;20127;-76
2022/02/14 00:52:04;;;;;;;151.50;93.82;;;153.80;2252.80;;;;;;4883468;29;20055;-80
2022/02/14 00:54:42;;;;;;;139.13;86.18;;;153.80;2252.80;;;;;;4885607;29;20084;-77
2022/02/14 00:57:14;;;;;;;132.45;84.57;;;153.60;2252.80;;;;;;4890884;29;20111;-76
2022/02/14 01:00:12;;;;;;;109.53;71.43;;;128.90;2252.80;;;;;;4895469;29;20021;-77
2022/02/14 01:02:39;;;;;;;108.28;68.90;;;128.80;2252.80;;;;;;4912072;29;20040;-75
2022/02/14 01:05:12;;;;;;;109.40;68.43;;;128.90;2252.80;;;;;;4895522;29;20032;-75
2022/02/14 01:07:49;;;;;;;109.72;70.88;;;128.90;2252.80;;;;;;4910584;29;20032;-75
2022/02/14 01:10:15;;;;;;;112.40;69.70;;;128.90;2252.80;;;;;;4893027;29;20115;-76
2022/02/14 01:12:43;;;;;;;111.88;69.43;;;153.70;2252.80;;;;;;4908711;29;20035;-77
2022/02/14 01:15:10;;;;;;;109.53;68.13;;;153.70;2252.80;;;;;;4889803;29;20081;-77
2022/02/14 01:17:39;;;;;;;113.32;66.78;;;153.70;2252.80;;;;;;4895412;29;20535;-77
2022/02/14 01:20:11;;;;;;;117.32;75.32;;;153.70;2252.80;;;;;;4910133;29;20037;-77
2022/02/14 01:22:39;;;;;;;118.60;74.68;;;153.60;2252.80;;;;;;4895096;29;20042;-77
2022/02/14 01:25:06;;;;;;;99.13;63.80;;;128.90;2252.80;;;;;;4879809;29;20388;-77
2022/02/14 01:27:33;;;;;;;103.40;64.43;;;128.90;2252.80;;;;;;4895578;29;20036;-77
2022/02/14 01:29:59;;;;;;;97.25;62.50;;;128.90;2252.80;;;;;;4894115;29;20433;-77
2022/02/14 01:32:25;;;;;;;99.38;61.35;;;128.90;2252.80;;;;;;4894069;29;20067;-77
2022/02/14 01:34:54;;;;;;;99.65;61.25;;;128.90;2252.80;;;;;;4878105;29;20056;-77
2022/02/14 01:37:21;;;;;;;96.70;57.80;;;128.70;2252.80;;;;;;4910292;29;20047;-77
2022/02/14 01:39:47;;;;;;;99.15;61.35;;;128.80;2252.80;;;;;;4888592;29;20024;-79
2022/02/14 01:42:14;;;;;;;121.00;73.18;;;128.70;2252.80;;;;;;4886098;29;20020;-80
2022/02/14 01:44:44;;;;;;;128.70;77.55;;;128.70;2252.80;;;;;;4888160;29;20531;-78
2022/02/14 01:47:13;;;;;;;111.80;68.32;;;128.70;2252.80;;;;;;4908632;29;20024;-77
2022/02/14 01:49:42;;;;;;;94.20;60.17;;;128.60;2252.80;;;;;;4910229;29;20025;-77
2022/02/14 01:52:09;;;;;;;100.28;61.95;;;128.70;2252.80;;;;;;4878622;29;20044;-76
2022/02/14 01:54:45;;;;;;;83.13;53.85;;;128.70;2252.80;;;;;;4894091;29;20020;-76
2022/02/14 01:57:14;;;;;;;122.85;73.35;;;128.70;2252.80;;;;;;4910240;29;20039;-77
2022/02/14 01:59:41;;;;;;;105.50;59.55;;;128.70;2252.80;;;;;;4878344;29;20439;-77
2022/02/14 02:02:08;;;;;;;121.60;68.13;;;128.70;2252.80;;;;;;4894357;29;20028;-78
2022/02/14 02:04:35;;;;;;;91.70;52.38;;;128.70;2252.80;;;;;;4893885;29;20120;-77
2022/02/14 02:07:07;;;;;;;84.88;48.20;;;128.40;2252.80;;;;;;4910050;29;20032;-77
2022/02/14 02:09:33;;;;;;;82.97;52.25;;;128.70;2252.80;;;;;;4862876;29;20031;-77
2022/02/14 02:14:45;;;;;;;93.65;59.83;;;128.50;2252.80;;;;;;4893537;29;20057;-81
2022/02/14 02:17:12;;;;;;;86.40;54.95;;;128.40;2252.80;;;;;;4902336;29;20476;-78
2022/02/14 02:19:40;;;;;;;89.55;57.55;;;128.40;2252.80;;;;;;4902792;29;20123;-79
2022/02/14 02:22:06;;;;;;;88.60;53.72;;;128.50;2252.80;;;;;;4891920;29;20385;-76
2022/02/14 02:24:54;;;;;;;88.32;57.88;;;128.50;2252.80;;;;;;4910451;29;20031;-77
2022/02/14 02:27:27;;;;;;;78.20;51.28;;;128.60;2252.80;;;;;;4878413;29;20025;-77
2022/02/14 02:30:01;;;;;;;90.47;55.15;;;128.50;2252.80;;;;;;4892451;29;20040;-77
2022/02/14 02:32:30;;;;;;;91.03;58.35;;;128.40;2252.80;;;;;;4906937;29;20047;-77
2022/02/14 02:35:01;;;;;;;91.47;57.88;;;128.40;2252.80;;;;;;4891732;29;20024;-77
2022/02/14 02:37:28;;;;;;;111.88;65.57;;;128.20;2252.80;;;;;;4911337;29;20088;-77
2022/02/14 02:39:56;;;;;;;131.80;74.90;;;128.20;2252.80;;;;;;4892259;29;20020;-80
2022/02/14 02:42:23;;;;;;;161.90;83.38;;;128.20;2252.80;;;;;;4907516;29;20072;-79
2022/02/14 02:44:52;;;;;;;133.82;71.75;;;128.10;2252.80;;;;;;4909217;29;20080;-76
2022/02/14 02:47:22;;;;;;;182.10;91.93;;;128.10;2252.80;;;;;;4893997;29;20115;-79
2022/02/14 02:49:52;;;;;;;120.82;66.88;;;128.10;2252.80;;;;;;4863981;29;20217;-78
2022/02/14 02:52:23;;;;;;;73.13;47.65;;;128.10;2252.80;;;;;;4894342;29;20107;-76
2022/02/14 02:54:50;;;;;;;70.45;45.50;;;103.30;2227.20;;;;;;4892751;29;20035;-77
2022/02/14 02:57:18;;;;;;;55.78;37.15;;;128.00;2252.80;;;;;;4892051;29;20032;-79
2022/02/14 02:59:49;;;;;;;69.90;42.17;;;128.00;2252.80;;;;;;4893111;29;20036;-77
2022/02/14 03:02:20;;;;;;;104.85;59.00;;;103.30;2227.20;;;;;;4894749;29;20032;-78
2022/02/14 03:04:58;;;;;;;123.22;65.88;;;103.30;2227.20;;;;;;4892371;29;20032;-77
2022/02/14 03:07:24;;;;;;;92.15;53.78;;;103.30;2227.20;;;;;;4876646;29;20054;-77
2022/02/14 03:09:52;;;;;;;89.53;53.13;;;103.20;2227.20;;;;;;4889947;29;20025;-79
2022/02/14 03:12:18;;;;;;;85.38;51.92;;;103.20;2227.20;;;;;;4875021;29;20029;-78
2022/02/14 03:14:48;;;;;;;78.45;48.03;;;103.30;2227.20;;;;;;4889894;29;20029;-78
2022/02/14 03:17:16;;;;;;;63.33;41.17;;;103.20;2227.20;;;;;;4906497;29;20457;-78
2022/02/14 03:19:43;;;;;;;68.40;45.05;;;128.20;2252.80;;;;;;4871844;29;20035;-77
2022/02/14 03:22:09;;;;;;;71.25;46.33;;;102.90;2227.20;;;;;;4886573;29;20492;-78
2022/02/14 03:24:35;;;;;;;82.63;48.85;;;102.90;2227.20;;;;;;4887100;29;20021;-78
2022/02/14 03:27:03;;;;;;;98.45;56.95;;;102.90;2227.20;;;;;;4886633;29;20016;-77
2022/02/14 03:29:31;;;;;;;87.88;52.35;;;102.80;2227.20;;;;;;4870346;29;20075;-79
2022/02/14 03:31:57;;;;;;;86.88;52.10;;;102.90;2227.20;;;;;;4902370;29;20429;-77
2022/02/14 03:34:25;;;;;;;85.95;52.83;;;103.00;2227.20;;;;;;4886223;29;20096;-80
2022/02/14 03:36:52;;;;;;;102.63;58.88;;;103.00;2227.20;;;;;;4885022;29;20072;-80
2022/02/14 03:39:18;;;;;;;111.80;66.40;;;103.00;2227.20;;;;;;4869840;29;20032;-80
2022/02/14 03:41:46;;;;;;;104.93;67.07;;;103.00;2227.20;;;;;;4884939;29;20207;-79
2022/02/14 03:44:13;;;;;;;68.57;41.58;;;103.00;2227.20;;;;;;4884544;29;20021;-80
2022/02/14 03:46:40;;;;;;;64.70;41.17;;;102.90;2227.20;;;;;;4884698;29;20060;-81
2022/02/14 03:49:07;;;;;;;66.57;42.15;;;102.80;2227.20;;;;;;4884993;29;20552;-81
2022/02/14 03:51:33;;;;;;;83.05;53.35;;;102.90;2227.20;;;;;;4884875;29;20029;-81
2022/02/14 03:54:28;;;;;;;81.80;50.58;;;102.90;2227.20;;;;;;4901107;29;20052;-79
2022/02/14 03:57:31;;;;;;;101.20;64.85;;;102.90;2227.20;;;;;;4901240;29;20076;-78
2022/02/14 04:00:24;;;;;;;97.05;55.67;;;102.90;2227.20;;;;;;4900627;29;20016;-78
2022/02/14 04:02:52;;;;;;;100.60;59.25;;;102.80;2227.20;;;;;;4884563;29;20096;-78
2022/02/14 04:05:19;;;;;;;89.07;57.53;;;102.80;2227.20;;;;;;4886231;29;20028;-78
2022/02/14 04:07:47;;;;;;;94.07;57.70;;;102.70;2227.20;;;;;;4887229;29;20036;-77
2022/02/14 04:10:17;;;;;;;92.32;59.08;;;102.70;2227.20;;;;;;4884400;29;20041;-77
2022/02/14 04:12:46;;;;;;;71.20;44.42;;;102.70;2227.20;;;;;;4902755;29;20106;-80
2022/02/14 04:15:12;;;;;;;69.60;44.50;;;102.50;2227.20;;;;;;4888749;29;20068;-77
2022/02/14 04:17:38;;;;;;;66.47;44.13;;;102.40;2227.20;;;;;;4889843;29;20028;-77
2022/02/14 04:20:05;;;;;;;114.80;67.07;;;102.50;2227.20;;;;;;4889837;29;20040;-78
2022/02/14 04:22:31;;;;;;;116.03;63.95;;;102.60;2227.20;;;;;;4889702;29;20135;-77
2022/02/14 04:24:59;;;;;;;121.15;69.15;;;102.50;2227.20;;;;;;4889367;29;20473;-77
2022/02/14 04:27:25;;;;;;;93.72;59.10;;;77.40;2227.20;;;;;;4875928;29;20056;-77
2022/02/14 04:29:51;;;;;;;85.70;58.58;;;102.50;2227.20;;;;;;4890460;29;20028;-78
2022/02/14 04:32:17;;;;;;;73.13;48.42;;;102.50;2227.20;;;;;;4891212;29;20060;-77
2022/02/14 04:34:43;;;;;;;65.55;42.42;;;102.50;2227.20;;;;;;4889772;29;20028;-77
2022/02/14 04:37:09;;;;;;;67.82;43.75;;;102.40;2227.20;;;;;;4890285;29;20040;-77
2022/02/14 04:39:35;;;;;;;86.57;55.70;;;102.50;2227.20;;;;;;4890300;29;20032;-78
2022/02/14 04:42:01;;;;;;;81.22;53.35;;;102.40;2227.20;;;;;;4889354;29;20016;-80
2022/02/14 04:44:27;;;;;;;78.57;52.38;;;102.40;2227.20;;;;;;4889373;29;20020;-77
2022/02/14 04:46:53;;;;;;;71.43;47.42;;;102.50;2227.20;;;;;;4906290;29;20035;-77
2022/02/14 04:49:19;;;;;;;69.45;47.45;;;102.40;2227.20;;;;;;4889060;29;20024;-77
2022/02/14 04:51:46;;;;;;;68.38;42.03;;;77.70;2227.20;;;;;;4904521;29;20028;-79
2022/02/14 04:54:14;;;;;;;56.17;37.75;;;77.60;2227.20;;;;;;4886367;29;20036;-80
2022/02/14 04:56:41;;;;;;;55.55;35.88;;;77.60;2227.20;;;;;;4884340;29;20042;-81
2022/02/14 04:59:09;;;;;;;55.13;38.08;;;77.50;2227.20;;;;;;4884854;29;20031;-80
2022/02/14 05:01:36;;;;;;;65.63;41.15;;;77.60;2227.20;;;;;;4885514;29;20017;-77
2022/02/14 05:04:04;;;;;;;60.72;41.97;;;77.70;2227.20;;;;;;4870942;29;20057;-77
2022/02/14 05:06:30;;;;;;;71.60;46.85;;;77.70;2227.20;;;;;;4873056;29;20025;-79
2022/02/14 05:08:56;;;;;;;83.40;53.33;;;77.70;2227.20;;;;;;4887355;29;20536;-79
2022/02/14 05:11:23;;;;;;;63.22;44.75;;;77.70;2227.20;;;;;;4887364;29;20028;-78
2022/02/14 05:13:50;;;;;;;69.43;48.05;;;77.70;2227.20;;;;;;4887262;29;20095;-77
2022/02/14 05:16:23;;;;;;;71.30;42.13;;;77.50;2227.20;;;;;;4901389;29;20460;-80
2022/02/14 05:18:51;;;;;;;72.75;47.03;;;77.50;2227.20;;;;;;4885257;29;20691;-78
2022/02/14 05:21:17;;;;;;;96.82;57.58;;;77.50;2227.20;;;;;;4869585;29;20032;-79
2022/02/14 05:23:44;;;;;;;92.25;55.50;;;77.50;2227.20;;;;;;4884722;29;20017;-79
2022/02/14 05:26:10;;;;;;;89.70;53.88;;;77.50;2227.20;;;;;;4886081;29;20016;-77
2022/02/14 05:28:37;;;;;;;109.72;63.65;;;77.50;2227.20;;;;;;4885244;29;20036;-79
2022/02/14 05:31:03;;;;;;;93.35;56.08;;;77.50;2227.20;;;;;;4884120;29;20040;-78
2022/02/14 05:33:29;;;;;;;69.57;44.45;;;77.40;2227.20;;;;;;4884293;29;20072;-77
2022/02/14 05:35:55;;;;;;;89.28;57.92;;;52.10;2227.20;;;;;;4884274;29;20051;-80
2022/02/14 05:38:22;;;;;;;93.13;58.40;;;77.40;2227.20;;;;;;4884218;29;20029;-78
2022/02/14 05:40:48;;;;;;;95.88;63.17;;;77.30;2227.20;;;;;;4868887;29;20021;-78
2022/02/14 05:43:15;;;;;;;105.63;66.10;;;77.30;2227.20;;;;;;4884303;29;20021;-78
2022/02/14 05:45:41;;;;;;;109.45;68.80;;;77.40;2227.20;;;;;;4886220;29;20021;-78
2022/02/14 05:48:08;;;;;;;107.90;67.53;;;77.30;2227.20;;;;;;4905389;29;20031;-78
2022/02/14 05:50:37;;;;;;;117.03;73.43;;;77.40;2227.20;;;;;;4914849;29;20032;-79
2022/02/14 05:53:03;;;;;;;166.85;98.28;;;77.30;2227.20;;;;;;4877227;29;20021;-78
2022/02/14 05:55:29;;;;;;;160.13;100.53;;;77.30;2227.20;;;;;;4896907;29;20024;-79
2022/02/14 05:57:55;;;;;;;144.23;94.53;;;77.20;2227.20;;;;;;4897975;29;20048;-78
2022/02/14 06:00:21;;;;;;;146.77;98.55;;;77.30;2227.20;;;;;;4882942;29;20025;-78
2022/02/14 06:02:48;;;;;;;133.23;84.50;;;77.10;2227.20;;;;;;4913947;29;20029;-78
2022/02/14 06:05:16;;;;;;;154.05;85.93;;;77.10;2227.20;;;;;;4897244;29;20040;-78
2022/02/14 06:07:42;;;;;;;158.00;91.50;;;77.10;2227.20;;;;;;4895716;29;20031;-81
2022/02/14 06:10:09;;;;;;;176.07;102.65;;;77.10;2227.20;;;;;;4896047;29;20211;-77
2022/02/14 06:12:36;;;;;;;170.30;106.82;;;77.70;2227.20;;;;;;4881427;29;20040;-78
2022/02/14 06:15:02;;;;;;;178.50;110.63;;;77.20;2227.20;;;;;;4881199;29;20362;-77
2022/02/14 06:17:28;;;;;;;166.00;103.70;;;77.20;2227.20;;;;;;4897701;29;20036;-78
2022/02/14 06:19:55;;;;;;;178.88;112.72;;;77.20;2227.20;;;;;;4895378;29;20469;-78
2022/02/14 06:22:21;;;;;;;189.45;111.28;;;77.30;2227.20;;;;;;4907750;29;20029;-78
2022/02/14 06:24:47;;;;;;;193.90;117.65;;;77.40;2227.20;;;;;;4889637;29;20016;-79
2022/02/14 06:27:13;;;;;;;185.60;113.28;;;77.50;2227.20;;;;;;4886548;29;20071;-78
2022/02/14 06:29:40;;;;;;;199.10;117.15;;;77.60;2227.20;;;;;;4885548;29;20032;-78
2022/02/14 06:32:07;;;;;;;200.63;129.77;;;77.70;2227.20;;;;;;4885865;29;20127;-80
2022/02/14 06:34:33;;;;;;;166.23;105.57;;;77.70;2227.20;;;;;;4888566;29;20112;-78
2022/02/14 06:36:59;;;;;;;160.85;107.43;;;77.70;2227.20;;;;;;4888733;29;20122;-78
2022/02/14 06:39:25;;;;;;;171.88;108.15;;;77.70;2227.20;;;;;;4872747;29;20036;-78
2022/02/14 06:41:53;;;;;;;187.63;113.18;;;102.50;2227.20;;;;;;4889514;29;20033;-77
2022/02/14 06:44:19;;;;;;;203.05;116.20;;;102.60;2227.20;;;;;;4872824;29;20115;-77
2022/02/14 06:46:45;;;;;;;201.07;118.18;;;102.80;2227.20;;;;;;4878372;29;20031;-77
2022/02/14 06:49:11;;;;;;;196.23;120.22;;;102.70;2227.20;;;;;;4894269;29;20088;-77
2022/02/14 06:51:39;;;;;;;194.52;122.82;;;102.70;2227.20;;;;;;4892767;29;20052;-78
2022/02/14 06:54:05;;;;;;;186.68;114.50;;;102.70;2227.20;;;;;;4873663;29;20052;-78
2022/02/14 06:56:31;;;;;;;131.50;81.65;;;102.70;2227.20;;;;;;4891338;29;20052;-77
2022/02/14 06:58:57;;;;;;;168.52;107.55;;;102.40;2227.20;;;;;;4894100;29;20025;-77
2022/02/14 07:01:23;;;;;;;139.43;92.28;;;102.40;2227.20;;;;;;4895322;29;20384;-77
2022/02/14 07:03:49;;;;;;;143.10;95.00;;;77.70;2227.20;;;;;;4894830;29;20035;-76
2022/02/14 07:06:15;;;;;;;174.88;120.63;;;77.70;2227.20;;;;;;4895391;29;20373;-77
2022/02/14 07:08:42;;;;;;;156.93;107.65;;;102.40;2227.20;;;;;;4897013;29;20036;-77
2022/02/14 07:11:08;;;;;;;155.70;106.53;;;77.70;2227.20;;;;;;4897006;29;20028;-77
2022/02/14 07:13:34;;;;;;;136.50;89.90;;;77.60;2227.20;;;;;;4895989;29;20020;-78
2022/02/14 07:16:00;;;;;;;129.73;87.63;;;77.60;2227.20;;;;;;4896278;29;20036;-77
2022/02/14 07:18:30;;;;;;;113.05;76.55;;;77.60;2227.20;;;;;;4895857;29;20024;-77
2022/02/14 07:20:56;;;;;;;105.38;71.90;;;77.70;2227.20;;;;;;4894936;29;20020;-77
2022/02/14 07:23:22;;;;;;;109.60;72.18;;;102.40;2227.20;;;;;;4877963;29;20024;-78
2022/02/14 07:25:49;;;;;;;104.28;66.65;;;102.40;2227.20;;;;;;4875804;29;20115;-77
2022/02/14 07:28:15;;;;;;;118.25;81.43;;;102.40;2227.20;;;;;;4889722;29;20042;-78
2022/02/14 07:30:44;;;;;;;92.63;61.83;;;102.60;2227.20;;;;;;4887004;29;20076;-77
2022/02/14 07:33:12;;;;;;;92.65;62.03;;;102.60;2227.20;;;;;;4892518;29;20116;-76
2022/02/14 07:35:38;;;;;;;89.53;63.25;;;102.80;2227.20;;;;;;4894589;29;20024;-78
2022/02/14 07:38:04;;;;;;;78.50;55.35;;;102.80;2227.20;;;;;;4912070;29;20027;-78
2022/02/14 07:40:30;;;;;;;86.13;59.58;;;102.90;2227.20;;;;;;4895286;29;20021;-79
2022/02/14 07:42:56;;;;;;;90.28;57.88;;;103.00;2227.20;;;;;;4895827;29;20424;-78
2022/02/14 07:45:23;;;;;;;125.72;82.65;;;103.00;2227.20;;;;;;4895811;29;20021;-78
2022/02/14 07:47:50;;;;;;;86.93;56.60;;;103.10;2227.20;;;;;;4896333;29;20116;-77
2022/02/14 07:50:16;;;;;;;103.05;75.10;;;103.10;2227.20;;;;;;4895347;29;20103;-79
2022/02/14 07:52:42;;;;;;;115.47;79.80;;;103.20;2227.20;;;;;;4892278;29;20063;-78
2022/02/14 07:55:08;;;;;;;113.78;76.68;;;103.30;2227.20;;;;;;4890972;29;20021;-78
2022/02/14 07:57:34;;;;;;;94.80;67.20;;;128.00;2252.80;;;;;;4888836;29;20059;-78
2022/02/14 08:00:02;;;;;;;87.45;58.28;;;128.10;2252.80;;;;;;4887116;29;20025;-80
2022/02/14 08:02:28;;;;;;;90.80;66.95;;;103.20;2227.20;;;;;;4871207;29;20025;-79
2022/02/14 08:04:54;;;;;;;83.13;57.83;;;128.30;2252.80;;;;;;4892040;29;20025;-77
2022/02/14 08:07:20;;;;;;;78.97;56.17;;;128.50;2252.80;;;;;;4892782;29;20021;-79
2022/02/14 08:09:45;;;;;;;90.28;61.92;;;128.50;2252.80;;;;;;4888454;29;20536;-80
2022/02/14 08:12:12;;;;;;;68.88;49.10;;;128.70;2252.80;;;;;;4888657;29;20024;-78
2022/02/14 08:14:39;;;;;;;70.03;45.15;;;128.90;2252.80;;;;;;4895291;29;20036;-77
2022/02/14 08:17:06;;;;;;;48.40;33.97;;;153.60;2252.80;;;;;;4896750;29;20031;-79
2022/02/14 08:19:38;;;;;;;66.18;41.53;;;153.70;2252.80;;;;;;4897695;29;20032;-77
2022/02/14 08:22:05;;;;;;;62.40;42.70;;;153.70;2252.80;;;;;;4912524;29;20421;-78
2022/02/14 08:24:31;;;;;;;69.15;46.15;;;154.00;2252.80;;;;;;4881474;29;20020;-76
2022/02/14 08:26:58;;;;;;;65.22;43.30;;;153.90;2252.80;;;;;;4896998;29;20048;-77
2022/02/14 08:29:28;;;;;;;68.28;46.95;;;153.90;2252.80;;;;;;4896924;29;20028;-77
2022/02/14 08:31:55;;;;;;;86.82;59.13;;;154.00;2252.80;;;;;;4881037;29;20392;-77
2022/02/14 08:34:21;;;;;;;76.75;57.75;;;154.10;2252.80;;;;;;4895706;29;20035;-77
2022/02/14 08:36:48;;;;;;;74.57;51.95;;;154.10;2252.80;;;;;;4912429;29;20032;-77
2022/02/14 08:39:14;;;;;;;77.38;53.72;;;154.20;2252.80;;;;;;4892072;29;20032;-77
2022/02/14 08:41:41;;;;;;;73.15;50.42;;;154.20;2252.80;;;;;;4894303;29;20092;-76
2022/02/14 08:44:09;;;;;;;72.72;49.78;;;154.20;2252.80;;;;;;4911389;29;20048;-77
2022/02/14 08:46:35;;;;;;;71.20;52.67;;;154.30;2252.80;;;;;;4895060;29;20376;-76
2022/02/14 08:49:02;;;;;;;77.68;54.38;;;154.30;2252.80;;;;;;4894377;29;20025;-77
2022/02/14 08:51:28;;;;;;;90.05;63.22;;;154.40;2252.80;;;;;;4877748;29;20025;-77
2022/02/14 08:53:54;;;;;;;81.18;55.83;;;154.50;2252.80;;;;;;4894959;29;20026;-77
2022/02/14 08:56:21;;;;;;;94.05;55.83;;;154.50;2252.80;;;;;;4892332;29;20021;-77
2022/02/14 08:58:47;;;;;;;84.40;60.08;;;179.30;2252.80;;;;;;4891356;29;20025;-78
2022/02/14 09:01:17;;;;;;;84.93;57.65;;;179.30;2252.80;;;;;;4890136;29;20020;-78
2022/02/14 09:03:46;;;;;;;79.10;56.67;;;179.40;2252.80;;;;;;4887472;29;20376;-79
2022/02/14 09:06:15;;;;;;;79.80;57.80;;;179.60;2252.80;;;;;;4883727;29;20043;-77
2022/02/14 09:08:40;;;;;;;57.25;40.03;;;179.60;2252.80;;;;;;4883201;29;20475;-79
2022/02/14 09:11:07;;;;;;;53.78;38.25;;;179.70;2252.80;;;;;;4883254;29;20115;-80
2022/02/14 09:13:36;;;;;;;54.33;38.88;;;179.80;2252.80;;;;;;4883447;29;20554;-81
2022/02/14 09:16:04;;;;;;;50.67;38.65;;;179.80;2252.80;;;;;;4885538;29;20060;-78
2022/02/14 09:18:34;;;;;;;55.70;41.05;;;179.90;2252.80;;;;;;4906437;29;20069;-76
2022/02/14 09:21:01;;;;;;;61.15;42.47;;;180.00;2252.80;;;;;;4888106;29;20345;-76
2022/02/14 09:23:27;;;;;;;55.53;41.08;;;180.00;2252.80;;;;;;4886101;29;20028;-79
2022/02/14 09:25:53;;;;;;;57.30;37.78;;;180.10;2252.80;;;;;;4885862;29;20028;-79
2022/02/14 09:28:20;;;;;;;45.85;35.47;;;204.80;2252.80;;;;;;4885758;29;20028;-75
2022/02/14 09:30:45;;;;;;;52.65;36.85;;;205.00;2252.80;;;;;;4885336;29;20496;-77
2022/02/14 09:33:11;;;;;;;54.70;37.08;;;205.20;2252.80;;;;;;4885784;29;20080;-80
2022/02/14 09:35:38;;;;;;;53.55;38.75;;;205.30;2252.80;;;;;;4885841;29;20028;-81
2022/02/14 09:38:05;;;;;;;48.13;35.35;;;205.30;2252.80;;;;;;4885415;29;20029;-79
2022/02/14 09:40:32;;;;;;;49.30;34.05;;;205.40;2252.80;;;;;;4885513;29;20060;-82
2022/02/14 09:43:00;;;;;;;51.80;33.55;;;205.50;2252.80;;;;;;4885460;29;20508;-79
2022/02/14 09:45:28;;;;;;;46.13;36.08;;;205.70;2252.80;;;;;;4885076;29;20028;-79
2022/02/14 09:48:01;;;;;;;46.47;36.35;;;230.50;2252.80;;;;;;4885196;29;20421;-79
2022/02/14 09:50:29;;;;;;;47.92;34.63;;;230.60;2252.80;;;;;;4885013;29;20028;-81
2022/02/14 09:52:55;;;;;;;55.17;41.47;;;230.60;2252.80;;;;;;4885135;29;20583;-82
2022/02/14 09:55:24;;;;;;;47.17;36.55;;;231.30;2252.80;;;;;;4884918;29;20037;-83
2022/02/14 09:57:50;;;;;;;51.35;33.97;;;230.80;2252.80;;;;;;4868892;29;20029;-77
2022/02/14 10:00:18;;;;;;;43.30;32.63;;;230.90;2252.80;;;;;;4884824;29;20464;-82
2022/02/14 10:02:44;;;;;;;40.75;31.30;;;230.90;2252.80;;;;;;4884797;29;20028;-80
2022/02/14 10:05:19;;;;;;;42.35;30.85;;;230.90;2252.80;;;;;;4884447;29;20020;-82
2022/02/14 10:07:52;;;;;;;45.85;33.38;;;230.90;2252.80;;;;;;4884681;29;20524;-80
2022/02/14 10:10:20;;;;;;;50.67;34.10;;;231.00;2252.80;;;;;;4884637;29;20028;-78
2022/02/14 10:12:49;;;;;;;46.08;29.73;;;231.10;2252.80;;;;;;4884262;29;20075;-83
2022/02/14 10:15:16;;;;;;;42.85;30.63;;;231.30;2252.80;;;;;;4884548;29;20341;-80
2022/02/14 10:17:49;;;;;;;47.50;33.03;;;231.30;2252.80;;;;;;4884571;29;20040;-79
2022/02/14 10:20:30;;;;;;;36.28;27.17;;;256.10;2252.80;;;;;;4884058;29;20025;-84
2022/02/14 10:22:59;;;;;;;52.47;32.75;;;256.20;2252.80;;;;;;4881725;29;20473;-83
2022/02/14 10:25:39;;;;;;;54.85;35.55;;;256.50;2252.80;;;;;;4884146;29;20024;-82
2022/02/14 10:28:32;;;;;;;50.55;33.70;;;256.50;2252.80;;;;;;4884245;29;20025;-81
2022/02/14 10:31:23;;;;;;;47.78;33.92;;;256.50;2252.80;;;;;;4880709;29;20100;-84
2022/02/14 10:34:01;;;;;;;44.50;31.15;;;256.40;2252.80;;;;;;4883973;29;20024;-83
2022/02/14 10:36:45;;;;;;;36.70;28.23;;;256.50;2252.80;;;;;;4884185;29;20025;-81
2022/02/14 10:39:47;;;;;;;47.83;36.70;;;256.50;2252.80;;;;;;4883697;29;20029;-83
2022/02/14 10:42:25;;;;;;;38.85;30.02;;;256.80;2252.80;;;;;;4883632;29;20194;-85
2022/02/14 10:45:09;;;;;;;46.58;33.88;;;256.90;2252.80;;;;;;4884075;29;20469;-82
2022/02/14 10:47:44;;;;;;;38.97;26.58;;;281.60;2278.40;;;;;;4883518;29;20066;-82
2022/02/14 10:50:26;;;;;;;41.45;30.85;;;281.80;2278.40;;;;;;4883924;29;20039;-80
2022/02/14 10:53:30;;;;;;;44.57;33.57;;;281.90;2278.40;;;;;;4883432;29;20048;-79
2022/02/14 10:55:59;;;;;;;44.55;33.25;;;282.00;2278.40;;;;;;4881355;29;20072;-78
2022/02/14 10:58:29;;;;;;;49.50;37.17;;;282.00;2278.40;;;;;;4883921;29;20457;-79
2022/02/14 11:00:57;;;;;;;37.92;27.27;;;282.10;2278.40;;;;;;4883822;29;20020;-84
2022/02/14 11:03:44;;;;;;;40.55;26.55;;;282.00;2278.40;;;;;;4886616;29;20365;-79
2022/02/14 11:06:18;;;;;;;35.75;23.65;;;282.40;2278.40;;;;;;4898528;29;20033;-83
2022/02/14 11:08:44;;;;;;;47.05;29.35;;;282.50;2278.40;;;;;;4868775;29;20032;-83
2022/02/14 11:11:13;;;;;;;36.50;26.83;;;307.20;2304.00;;;;;;4899524;29;20465;-82
2022/02/14 11:13:41;;;;;;;38.75;30.17;;;307.30;2304.00;;;;;;4868287;29;20032;-78
2022/02/14 11:16:09;;;;;;;38.25;29.33;;;307.30;2304.00;;;;;;4883305;29;20056;-79
2022/02/14 11:18:39;;;;;;;36.00;24.92;;;307.20;2304.00;;;;;;4899407;29;20114;-76
2022/02/14 11:21:11;;;;;;;24.90;19.45;;;282.50;2278.40;;;;;;4899850;29;20028;-83
2022/02/14 11:24:04;;;;;;;39.50;28.73;;;282.40;2278.40;;;;;;4883314;29;20076;-80
2022/02/14 11:30:24;;;;;;;26.73;22.55;;;307.40;2304.00;;;;;;4876055;29;20031;-79
2022/02/14 11:33:13;;;;;;;47.30;34.58;;;307.50;2304.00;;;;;;4883122;29;20052;-78
2022/02/14 11:36:05;;;;;;;38.78;28.23;;;307.80;2304.00;;;;;;4882870;29;20024;-81
2022/02/14 11:39:16;;;;;;;27.80;23.42;;;307.90;2304.00;;;;;;4880451;29;20041;-80
2022/02/14 11:41:49;;;;;;;40.83;25.75;;;332.80;2329.60;;;;;;4879805;29;20357;-76
2022/02/14 11:44:34;;;;;;;38.03;26.75;;;333.10;2329.60;;;;;;4880044;29;20016;-78
2022/02/14 11:47:23;;;;;;;42.58;32.30;;;333.50;2329.60;;;;;;4881823;29;20025;-78
2022/02/14 11:49:59;;;;;;;39.55;30.20;;;333.50;2329.60;;;;;;4882375;29;20056;-81
2022/02/14 11:52:45;;;;;;;121.18;78.47;;;333.30;2329.60;;;;;;4882697;29;20533;-83
2022/02/14 11:55:28;;;;;;;81.90;61.25;;;333.30;2329.60;;;;;;4882235;29;20021;-77
2022/02/14 11:58:42;;;;;;;33.97;25.33;;;333.50;2329.60;;;;;;4882438;29;20017;-81
2022/02/14 12:01:32;;;;;;;43.42;31.13;;;333.60;2329.60;;;;;;4884908;29;20025;-79
2022/02/14 12:08:16;;;;;;;31.83;24.42;;;358.70;2329.60;;;;;;4887628;29;20036;-80
2022/02/14 12:11:10;;;;;;;36.42;24.65;;;359.20;2227.20;;;;;;4881989;29;20028;-81
2022/02/14 12:13:56;;;;;;;24.65;19.08;;;384.30;2201.60;;;;;;4882484;29;20076;-80
2022/02/14 12:23:03;;;;;;;39.70;24.75;;;384.40;2124.80;;;;;;4900780;29;20116;-80
2022/02/14 12:25:30;;;;;;;32.92;24.88;;;384.40;2176.00;;;;;;4880298;29;20044;-79
2022/02/14 12:27:57;;;;;;;37.92;27.05;;;384.00;2150.40;;;;;;4881700;29;20457;-80